Addison, Alabama
Current Conditions -  °F | °C
As of 6:15 AM on Saturday 25 Oct 2014 (Local Time) from KCMD Reporting Station
Haze Haze  
Wind Chill: 42°   Ceiling: Unl
Heat Index: 42°   Visibility: 5mi
Dew Point: 42°   Wind: 0mph
Humidity: 98%   Direction: NA
Pressure: 30.12"   Gusts: NA
Location:  34.2°N, 87.18°W
Report Text: KCMD 251115Z AUTO 00000KT 5SM BR CLR 06/05 A3012 RMK AO2 T00560053
Loading
Personal Weather Stations






























Interactive Weather Map
Tropical Storm Tracking
New forecast layout! Learn more

10-Day Weather Forecast

Advertisements
Track Severe Weather on mobile